sensor_id;sensor_type;location;lat;lon;timestamp;pressure;altitude;pressure_sealevel;temperature;humidity
28448;BME280;15675;52.870;-1.416;2023-02-03T00:01:14;101930.91;;;10.32;100.00
28448;BME280;15675;52.870;-1.416;2023-02-03T00:03:41;101934.00;;;10.17;100.00
28448;BME280;15675;52.870;-1.416;2023-02-03T00:06:07;101936.03;;;10.29;100.00
28448;BME280;15675;52.870;-1.416;2023-02-03T00:08:32;101931.84;;;10.34;100.00
28448;BME280;15675;52.870;-1.416;2023-02-03T00:10:58;101922.59;;;10.11;100.00
28448;BME280;15675;52.870;-1.416;2023-02-03T00:13:24;101910.31;;;10.04;100.00
28448;BME280;15675;52.870;-1.416;2023-02-03T00:15:51;101911.97;;;10.35;100.00
28448;BME280;15675;52.870;-1.416;2023-02-03T00:18:16;101918.25;;;10.45;100.00
28448;BME280;15675;52.870;-1.416;2023-02-03T00:20:42;101914.50;;;10.33;100.00
28448;BME280;15675;52.870;-1.416;2023-02-03T00:23:09;101906.94;;;10.43;100.00
28448;BME280;15675;52.870;-1.416;2023-02-03T00:25:36;101913.91;;;10.44;100.00
28448;BME280;15675;52.870;-1.416;2023-02-03T00:28:03;101899.63;;;10.26;100.00
28448;BME280;15675;52.870;-1.416;2023-02-03T00:30:28;101897.00;;;10.25;100.00
28448;BME280;15675;52.870;-1.416;2023-02-03T00:32:54;101885.25;;;10.04;100.00
28448;BME280;15675;52.870;-1.416;2023-02-03T00:35:20;101887.66;;;9.96;100.00
28448;BME280;15675;52.870;-1.416;2023-02-03T00:37:52;101891.28;;;10.03;100.00
28448;BME280;15675;52.870;-1.416;2023-02-03T00:40:19;101889.59;;;10.05;100.00
28448;BME280;15675;52.870;-1.416;2023-02-03T00:42:45;101893.53;;;10.26;100.00
28448;BME280;15675;52.870;-1.416;2023-02-03T00:45:11;101901.16;;;10.18;100.00
28448;BME280;15675;52.870;-1.416;2023-02-03T00:47:36;101898.28;;;10.07;100.00
28448;BME280;15675;52.870;-1.416;2023-02-03T00:50:03;101902.28;;;10.29;100.00
28448;BME280;15675;52.870;-1.416;2023-02-03T00:52:28;101904.88;;;10.29;100.00
28448;BME280;15675;52.870;-1.416;2023-02-03T00:54:54;101901.47;;;10.30;100.00
28448;BME280;15675;52.870;-1.416;2023-02-03T00:57:19;101911.06;;;10.34;100.00
28448;BME280;15675;52.870;-1.416;2023-02-03T00:59:45;101904.78;;;10.25;100.00
28448;BME280;15675;52.870;-1.416;2023-02-03T01:02:10;101908.88;;;10.15;100.00
28448;BME280;15675;52.870;-1.416;2023-02-03T01:04:36;101927.06;;;10.16;100.00
28448;BME280;15675;52.870;-1.416;2023-02-03T01:07:02;101921.28;;;10.28;100.00
28448;BME280;15675;52.870;-1.416;2023-02-03T01:09:27;101921.19;;;10.24;100.00
28448;BME280;15675;52.870;-1.416;2023-02-03T01:11:53;101915.66;;;10.10;100.00
28448;BME280;15675;52.870;-1.416;2023-02-03T01:14:18;101924.72;;;10.27;100.00
28448;BME280;15675;52.870;-1.416;2023-02-03T01:16:44;101914.66;;;10.05;100.00
28448;BME280;15675;52.870;-1.416;2023-02-03T01:19:09;101913.44;;;10.25;100.00
28448;BME280;15675;52.870;-1.416;2023-02-03T01:21:35;101911.47;;;10.15;100.00
28448;BME280;15675;52.870;-1.416;2023-02-03T01:24:01;101916.00;;;10.24;100.00
28448;BME280;15675;52.870;-1.416;2023-02-03T01:26:27;101914.25;;;10.23;100.00
28448;BME280;15675;52.870;-1.416;2023-02-03T01:28:54;101920.53;;;10.32;100.00
28448;BME280;15675;52.870;-1.416;2023-02-03T01:31:23;101920.94;;;10.14;100.00
28448;BME280;15675;52.870;-1.416;2023-02-03T01:33:50;101929.19;;;10.33;100.00
28448;BME280;15675;52.870;-1.416;2023-02-03T01:36:17;101909.31;;;10.33;100.00
28448;BME280;15675;52.870;-1.416;2023-02-03T01:38:43;101904.72;;;10.23;100.00
28448;BME280;15675;52.870;-1.416;2023-02-03T01:41:13;101905.28;;;10.10;100.00
28448;BME280;15675;52.870;-1.416;2023-02-03T01:43:42;101894.94;;;10.11;100.00
28448;BME280;15675;52.870;-1.416;2023-02-03T01:46:23;101901.78;;;10.44;100.00
28448;BME280;15675;52.870;-1.416;2023-02-03T01:48:52;101873.47;;;10.18;100.00
28448;BME280;15675;52.870;-1.416;2023-02-03T01:51:19;101881.03;;;10.08;100.00
28448;BME280;15675;52.870;-1.416;2023-02-03T01:53:46;101886.69;;;10.28;100.00
28448;BME280;15675;52.870;-1.416;2023-02-03T01:56:12;101889.56;;;10.39;100.00
28448;BME280;15675;52.870;-1.416;2023-02-03T01:58:39;101887.53;;;10.27;100.00
28448;BME280;15675;52.870;-1.416;2023-02-03T02:01:06;101896.03;;;10.21;100.00
28448;BME280;15675;52.870;-1.416;2023-02-03T02:03:36;101915.03;;;10.55;100.00
28448;BME280;15675;52.870;-1.416;2023-02-03T02:06:07;101918.00;;;10.34;100.00
28448;BME280;15675;52.870;-1.416;2023-02-03T02:08:33;101927.78;;;10.46;100.00
28448;BME280;15675;52.870;-1.416;2023-02-03T02:10:59;101935.59;;;10.47;100.00
28448;BME280;15675;52.870;-1.416;2023-02-03T02:13:26;101936.16;;;10.34;100.00
28448;BME280;15675;52.870;-1.416;2023-02-03T02:16:20;101928.75;;;10.49;100.00
28448;BME280;15675;52.870;-1.416;2023-02-03T02:21:47;101923.88;;;10.63;100.00
28448;BME280;15675;52.870;-1.416;2023-02-03T02:35:44;101915.53;;;10.40;100.00
28448;BME280;15675;52.870;-1.416;2023-02-03T02:46:26;101904.63;;;10.53;100.00
28448;BME280;15675;52.870;-1.416;2023-02-03T02:49:10;101892.41;;;10.49;100.00
28448;BME280;15675;52.870;-1.416;2023-02-03T02:51:38;101886.78;;;10.69;100.00
28448;BME280;15675;52.870;-1.416;2023-02-03T02:54:07;101898.75;;;10.62;100.00
28448;BME280;15675;52.870;-1.416;2023-02-03T02:56:38;101900.41;;;10.60;100.00
28448;BME280;15675;52.870;-1.416;2023-02-03T02:59:05;101892.31;;;10.45;100.00
28448;BME280;15675;52.870;-1.416;2023-02-03T03:01:32;101910.47;;;10.45;100.00
28448;BME280;15675;52.870;-1.416;2023-02-03T03:03:59;101912.56;;;10.61;100.00
28448;BME280;15675;52.870;-1.416;2023-02-03T03:06:30;101915.13;;;10.60;100.00
28448;BME280;15675;52.870;-1.416;2023-02-03T03:09:01;101925.00;;;10.75;100.00
28448;BME280;15675;52.870;-1.416;2023-02-03T03:11:31;101914.63;;;10.76;100.00
28448;BME280;15675;52.870;-1.416;2023-02-03T03:13:58;101924.81;;;10.67;100.00
28448;BME280;15675;52.870;-1.416;2023-02-03T03:16:26;101937.56;;;10.56;100.00
28448;BME280;15675;52.870;-1.416;2023-02-03T03:19:06;101931.78;;;10.69;100.00
28448;BME280;15675;52.870;-1.416;2023-02-03T03:21:37;101920.19;;;10.53;100.00
28448;BME280;15675;52.870;-1.416;2023-02-03T03:24:08;101923.31;;;10.40;100.00
28448;BME280;15675;52.870;-1.416;2023-02-03T03:31:34;101936.34;;;10.42;100.00
28448;BME280;15675;52.870;-1.416;2023-02-03T03:34:00;101922.22;;;10.30;100.00
28448;BME280;15675;52.870;-1.416;2023-02-03T03:36:32;101926.78;;;10.06;100.00
28448;BME280;15675;52.870;-1.416;2023-02-03T03:39:31;101940.69;;;10.08;100.00
28448;BME280;15675;52.870;-1.416;2023-02-03T03:44:31;101940.03;;;10.16;100.00
28448;BME280;15675;52.870;-1.416;2023-02-03T03:47:10;101946.00;;;10.12;100.00
28448;BME280;15675;52.870;-1.416;2023-02-03T03:49:38;101940.28;;;10.27;100.00
28448;BME280;15675;52.870;-1.416;2023-02-03T03:52:08;101941.78;;;10.17;100.00
28448;BME280;15675;52.870;-1.416;2023-02-03T03:54:36;101939.94;;;10.12;100.00
28448;BME280;15675;52.870;-1.416;2023-02-03T03:57:09;101966.03;;;10.18;100.00
28448;BME280;15675;52.870;-1.416;2023-02-03T03:59:41;101953.31;;;10.29;100.00
28448;BME280;15675;52.870;-1.416;2023-02-03T04:02:09;101940.44;;;10.32;100.00
28448;BME280;15675;52.870;-1.416;2023-02-03T04:04:37;101965.75;;;10.41;100.00
28448;BME280;15675;52.870;-1.416;2023-02-03T04:07:04;101966.59;;;10.40;100.00
28448;BME280;15675;52.870;-1.416;2023-02-03T04:09:30;101957.19;;;10.45;100.00
28448;BME280;15675;52.870;-1.416;2023-02-03T04:11:55;101970.44;;;10.57;100.00
28448;BME280;15675;52.870;-1.416;2023-02-03T04:14:32;101975.28;;;10.42;100.00
28448;BME280;15675;52.870;-1.416;2023-02-03T04:16:58;101984.69;;;10.36;100.00
28448;BME280;15675;52.870;-1.416;2023-02-03T04:19:24;101977.78;;;10.39;100.00
28448;BME280;15675;52.870;-1.416;2023-02-03T04:21:50;101978.97;;;10.51;100.00
28448;BME280;15675;52.870;-1.416;2023-02-03T04:24:16;101965.09;;;10.49;100.00
28448;BME280;15675;52.870;-1.416;2023-02-03T04:26:41;101961.00;;;10.59;100.00
28448;BME280;15675;52.870;-1.416;2023-02-03T04:29:07;101961.66;;;10.50;100.00
28448;BME280;15675;52.870;-1.416;2023-02-03T04:31:33;101950.25;;;10.44;100.00
28448;BME280;15675;52.870;-1.416;2023-02-03T04:33:59;101955.75;;;10.56;100.00
28448;BME280;15675;52.870;-1.416;2023-02-03T04:36:25;101976.41;;;10.53;100.00
28448;BME280;15675;52.870;-1.416;2023-02-03T04:38:50;101969.31;;;10.46;100.00
28448;BME280;15675;52.870;-1.416;2023-02-03T04:41:16;101960.94;;;10.56;100.00
28448;BME280;15675;52.870;-1.416;2023-02-03T04:43:42;101974.75;;;10.55;100.00
28448;BME280;15675;52.870;-1.416;2023-02-03T04:46:08;101977.28;;;10.52;100.00
28448;BME280;15675;52.870;-1.416;2023-02-03T04:48:35;101964.06;;;10.43;100.00
28448;BME280;15675;52.870;-1.416;2023-02-03T04:51:05;101989.31;;;10.50;100.00
28448;BME280;15675;52.870;-1.416;2023-02-03T04:53:31;101994.97;;;10.33;100.00
28448;BME280;15675;52.870;-1.416;2023-02-03T04:55:57;102006.72;;;10.54;100.00
28448;BME280;15675;52.870;-1.416;2023-02-03T04:58:23;102004.50;;;10.34;100.00
28448;BME280;15675;52.870;-1.416;2023-02-03T05:00:48;101999.03;;;10.24;100.00
28448;BME280;15675;52.870;-1.416;2023-02-03T05:03:14;102000.78;;;10.58;100.00
28448;BME280;15675;52.870;-1.416;2023-02-03T05:05:40;102020.53;;;10.53;100.00
28448;BME280;15675;52.870;-1.416;2023-02-03T05:08:05;102021.84;;;10.35;100.00
28448;BME280;15675;52.870;-1.416;2023-02-03T05:10:31;102037.47;;;10.37;100.00
28448;BME280;15675;52.870;-1.416;2023-02-03T05:12:56;102030.84;;;10.50;100.00
28448;BME280;15675;52.870;-1.416;2023-02-03T05:15:22;102028.34;;;10.53;100.00
28448;BME280;15675;52.870;-1.416;2023-02-03T05:17:50;102026.41;;;10.46;100.00
28448;BME280;15675;52.870;-1.416;2023-02-03T05:20:16;102022.16;;;10.48;100.00
28448;BME280;15675;52.870;-1.416;2023-02-03T05:22:42;102054.06;;;10.79;100.00
28448;BME280;15675;52.870;-1.416;2023-02-03T05:25:07;102053.91;;;10.73;100.00
28448;BME280;15675;52.870;-1.416;2023-02-03T05:27:33;102034.97;;;10.42;100.00
28448;BME280;15675;52.870;-1.416;2023-02-03T05:29:59;102045.34;;;10.42;100.00
28448;BME280;15675;52.870;-1.416;2023-02-03T05:32:24;102051.56;;;10.47;100.00
28448;BME280;15675;52.870;-1.416;2023-02-03T05:34:50;102056.31;;;10.63;100.00
28448;BME280;15675;52.870;-1.416;2023-02-03T05:37:15;102050.22;;;10.63;100.00
28448;BME280;15675;52.870;-1.416;2023-02-03T05:39:41;102053.34;;;10.49;100.00
28448;BME280;15675;52.870;-1.416;2023-02-03T05:42:06;102052.31;;;10.43;100.00
28448;BME280;15675;52.870;-1.416;2023-02-03T05:44:32;102054.91;;;10.43;100.00
28448;BME280;15675;52.870;-1.416;2023-02-03T05:46:58;102061.59;;;10.34;100.00
28448;BME280;15675;52.870;-1.416;2023-02-03T05:49:24;102056.06;;;10.54;100.00
28448;BME280;15675;52.870;-1.416;2023-02-03T05:51:51;102074.84;;;10.44;100.00
28448;BME280;15675;52.870;-1.416;2023-02-03T05:54:16;102062.00;;;10.16;100.00
28448;BME280;15675;52.870;-1.416;2023-02-03T05:56:42;102080.88;;;10.43;100.00
28448;BME280;15675;52.870;-1.416;2023-02-03T05:59:08;102082.75;;;10.48;100.00
28448;BME280;15675;52.870;-1.416;2023-02-03T06:01:34;102088.53;;;10.38;100.00
28448;BME280;15675;52.870;-1.416;2023-02-03T06:04:01;102087.25;;;10.24;100.00
28448;BME280;15675;52.870;-1.416;2023-02-03T06:06:27;102079.56;;;10.27;100.00
28448;BME280;15675;52.870;-1.416;2023-02-03T06:09:04;102067.38;;;10.24;100.00
28448;BME280;15675;52.870;-1.416;2023-02-03T06:11:31;102077.81;;;10.27;100.00
28448;BME280;15675;52.870;-1.416;2023-02-03T06:13:58;102085.22;;;10.12;100.00
28448;BME280;15675;52.870;-1.416;2023-02-03T06:16:24;102076.94;;;10.25;100.00
28448;BME280;15675;52.870;-1.416;2023-02-03T06:18:51;102081.69;;;10.42;100.00
28448;BME280;15675;52.870;-1.416;2023-02-03T06:21:17;102066.25;;;10.46;100.00
28448;BME280;15675;52.870;-1.416;2023-02-03T06:23:43;102064.53;;;10.47;100.00
28448;BME280;15675;52.870;-1.416;2023-02-03T06:26:08;102077.03;;;10.30;100.00
28448;BME280;15675;52.870;-1.416;2023-02-03T06:28:34;102067.38;;;10.24;100.00
28448;BME280;15675;52.870;-1.416;2023-02-03T06:31:00;102072.47;;;10.53;100.00
28448;BME280;15675;52.870;-1.416;2023-02-03T06:33:25;102071.25;;;10.39;100.00
28448;BME280;15675;52.870;-1.416;2023-02-03T06:35:52;102084.19;;;10.37;100.00
28448;BME280;15675;52.870;-1.416;2023-02-03T06:38:18;102079.66;;;10.31;100.00
28448;BME280;15675;52.870;-1.416;2023-02-03T06:40:47;102078.38;;;10.15;100.00
28448;BME280;15675;52.870;-1.416;2023-02-03T06:43:13;102066.97;;;10.09;100.00
28448;BME280;15675;52.870;-1.416;2023-02-03T06:45:39;102075.25;;;9.95;100.00
28448;BME280;15675;52.870;-1.416;2023-02-03T06:48:05;102073.84;;;10.07;100.00
28448;BME280;15675;52.870;-1.416;2023-02-03T06:50:30;102069.31;;;9.99;100.00
28448;BME280;15675;52.870;-1.416;2023-02-03T06:52:56;102064.63;;;10.18;100.00
28448;BME280;15675;52.870;-1.416;2023-02-03T06:55:21;102064.47;;;10.12;100.00
28448;BME280;15675;52.870;-1.416;2023-02-03T06:57:47;102064.06;;;9.96;100.00
28448;BME280;15675;52.870;-1.416;2023-02-03T07:00:15;102050.41;;;10.04;100.00
28448;BME280;15675;52.870;-1.416;2023-02-03T07:02:41;102063.19;;;9.97;100.00
28448;BME280;15675;52.870;-1.416;2023-02-03T07:05:07;102067.84;;;10.09;100.00
28448;BME280;15675;52.870;-1.416;2023-02-03T07:07:33;102083.13;;;10.30;100.00
28448;BME280;15675;52.870;-1.416;2023-02-03T07:10:00;102091.09;;;10.36;100.00
28448;BME280;15675;52.870;-1.416;2023-02-03T07:12:25;102099.16;;;10.15;100.00
28448;BME280;15675;52.870;-1.416;2023-02-03T07:14:52;102111.06;;;10.39;100.00
28448;BME280;15675;52.870;-1.416;2023-02-03T07:17:18;102108.97;;;10.27;100.00
28448;BME280;15675;52.870;-1.416;2023-02-03T07:19:43;102121.22;;;10.33;100.00
28448;BME280;15675;52.870;-1.416;2023-02-03T07:22:11;102127.47;;;10.38;100.00
28448;BME280;15675;52.870;-1.416;2023-02-03T07:24:37;102131.31;;;10.52;100.00
28448;BME280;15675;52.870;-1.416;2023-02-03T07:27:03;102132.06;;;10.48;100.00
28448;BME280;15675;52.870;-1.416;2023-02-03T07:29:28;102143.84;;;10.35;100.00
28448;BME280;15675;52.870;-1.416;2023-02-03T07:31:54;102147.94;;;10.59;100.00
28448;BME280;15675;52.870;-1.416;2023-02-03T07:34:19;102142.25;;;10.74;100.00
28448;BME280;15675;52.870;-1.416;2023-02-03T07:36:45;102147.88;;;10.56;100.00
28448;BME280;15675;52.870;-1.416;2023-02-03T07:39:11;102156.19;;;10.44;100.00
28448;BME280;15675;52.870;-1.416;2023-02-03T07:41:36;102154.16;;;10.66;100.00
28448;BME280;15675;52.870;-1.416;2023-02-03T07:44:02;102157.56;;;10.63;100.00
28448;BME280;15675;52.870;-1.416;2023-02-03T07:46:28;102157.03;;;10.43;100.00
28448;BME280;15675;52.870;-1.416;2023-02-03T07:48:53;102177.19;;;10.52;100.00
28448;BME280;15675;52.870;-1.416;2023-02-03T07:51:19;102177.25;;;10.55;100.00
28448;BME280;15675;52.870;-1.416;2023-02-03T07:53:45;102189.47;;;10.59;100.00
28448;BME280;15675;52.870;-1.416;2023-02-03T07:56:11;102175.81;;;10.34;100.00
28448;BME280;15675;52.870;-1.416;2023-02-03T07:58:36;102185.09;;;10.26;100.00
28448;BME280;15675;52.870;-1.416;2023-02-03T08:01:09;102167.28;;;10.39;100.00
28448;BME280;15675;52.870;-1.416;2023-02-03T08:03:35;102172.06;;;10.25;100.00
28448;BME280;15675;52.870;-1.416;2023-02-03T08:06:01;102169.91;;;10.40;100.00
28448;BME280;15675;52.870;-1.416;2023-02-03T08:08:26;102164.91;;;10.17;100.00
28448;BME280;15675;52.870;-1.416;2023-02-03T08:10:54;102152.13;;;10.24;100.00
28448;BME280;15675;52.870;-1.416;2023-02-03T08:13:20;102145.97;;;10.20;100.00
28448;BME280;15675;52.870;-1.416;2023-02-03T08:15:46;102150.97;;;10.12;100.00
28448;BME280;15675;52.870;-1.416;2023-02-03T08:18:12;102148.41;;;10.14;100.00
28448;BME280;15675;52.870;-1.416;2023-02-03T08:20:37;102165.34;;;10.33;100.00
28448;BME280;15675;52.870;-1.416;2023-02-03T08:23:03;102162.44;;;10.21;100.00
28448;BME280;15675;52.870;-1.416;2023-02-03T08:25:28;102192.16;;;10.32;100.00
28448;BME280;15675;52.870;-1.416;2023-02-03T08:27:54;102198.09;;;10.58;100.00
28448;BME280;15675;52.870;-1.416;2023-02-03T08:30:19;102207.63;;;10.58;100.00
28448;BME280;15675;52.870;-1.416;2023-02-03T08:32:45;102211.88;;;10.56;100.00
28448;BME280;15675;52.870;-1.416;2023-02-03T08:35:10;102224.81;;;10.86;100.00
28448;BME280;15675;52.870;-1.416;2023-02-03T08:37:36;102216.47;;;10.66;100.00
28448;BME280;15675;52.870;-1.416;2023-02-03T08:40:02;102235.28;;;10.89;100.00
28448;BME280;15675;52.870;-1.416;2023-02-03T08:42:28;102255.16;;;10.88;100.00
28448;BME280;15675;52.870;-1.416;2023-02-03T08:44:54;102250.59;;;11.12;100.00
28448;BME280;15675;52.870;-1.416;2023-02-03T08:47:19;102260.03;;;11.08;100.00
28448;BME280;15675;52.870;-1.416;2023-02-03T08:49:46;102274.06;;;11.15;100.00
28448;BME280;15675;52.870;-1.416;2023-02-03T08:52:12;102272.22;;;11.11;100.00
28448;BME280;15675;52.870;-1.416;2023-02-03T08:54:38;102283.34;;;11.05;100.00
28448;BME280;15675;52.870;-1.416;2023-02-03T08:57:04;102277.28;;;11.04;100.00
28448;BME280;15675;52.870;-1.416;2023-02-03T08:59:30;102289.59;;;11.12;100.00
28448;BME280;15675;52.870;-1.416;2023-02-03T09:01:56;102289.16;;;10.96;100.00
28448;BME280;15675;52.870;-1.416;2023-02-03T09:04:24;102289.06;;;10.92;100.00
28448;BME280;15675;52.870;-1.416;2023-02-03T09:06:50;102299.78;;;11.37;100.00
28448;BME280;15675;52.870;-1.416;2023-02-03T09:09:16;102310.09;;;11.34;100.00
28448;BME280;15675;52.870;-1.416;2023-02-03T09:11:42;102317.72;;;10.95;100.00
28448;BME280;15675;52.870;-1.416;2023-02-03T09:14:08;102308.84;;;10.88;100.00
28448;BME280;15675;52.870;-1.416;2023-02-03T09:16:34;102312.72;;;11.02;100.00
28448;BME280;15675;52.870;-1.416;2023-02-03T09:19:00;102301.19;;;11.25;100.00
28448;BME280;15675;52.870;-1.416;2023-02-03T09:21:25;102302.22;;;11.33;100.00
28448;BME280;15675;52.870;-1.416;2023-02-03T09:23:51;102315.56;;;11.12;100.00
28448;BME280;15675;52.870;-1.416;2023-02-03T09:26:17;102321.22;;;11.29;100.00
28448;BME280;15675;52.870;-1.416;2023-02-03T09:28:43;102320.59;;;11.05;100.00
28448;BME280;15675;52.870;-1.416;2023-02-03T09:31:10;102323.41;;;11.48;100.00
28448;BME280;15675;52.870;-1.416;2023-02-03T09:33:36;102328.38;;;11.37;100.00
28448;BME280;15675;52.870;-1.416;2023-02-03T09:36:02;102341.47;;;11.77;100.00
28448;BME280;15675;52.870;-1.416;2023-02-03T09:38:28;102345.16;;;11.50;100.00
28448;BME280;15675;52.870;-1.416;2023-02-03T09:40:58;102340.97;;;11.57;100.00
28448;BME280;15675;52.870;-1.416;2023-02-03T09:43:46;102338.56;;;11.63;100.00
28448;BME280;15675;52.870;-1.416;2023-02-03T09:46:22;102352.31;;;11.94;100.00
28448;BME280;15675;52.870;-1.416;2023-02-03T09:48:52;102352.09;;;11.51;100.00
28448;BME280;15675;52.870;-1.416;2023-02-03T09:51:22;102374.44;;;11.78;100.00
28448;BME280;15675;52.870;-1.416;2023-02-03T09:53:54;102376.69;;;11.64;100.00
28448;BME280;15675;52.870;-1.416;2023-02-03T09:56:33;102375.63;;;11.91;100.00
28448;BME280;15675;52.870;-1.416;2023-02-03T09:58:59;102380.22;;;12.00;100.00
28448;BME280;15675;52.870;-1.416;2023-02-03T10:01:41;102377.03;;;11.77;100.00
28448;BME280;15675;52.870;-1.416;2023-02-03T10:04:27;102371.06;;;11.81;100.00
28448;BME280;15675;52.870;-1.416;2023-02-03T10:07:11;102370.78;;;11.70;100.00
28448;BME280;15675;52.870;-1.416;2023-02-03T10:15:14;102398.53;;;12.03;100.00
28448;BME280;15675;52.870;-1.416;2023-02-03T10:17:59;102409.84;;;12.05;100.00
28448;BME280;15675;52.870;-1.416;2023-02-03T10:23:05;102402.84;;;12.02;100.00
28448;BME280;15675;52.870;-1.416;2023-02-03T10:25:49;102391.09;;;11.85;100.00
28448;BME280;15675;52.870;-1.416;2023-02-03T10:28:21;102397.38;;;11.93;100.00
28448;BME280;15675;52.870;-1.416;2023-02-03T10:30:50;102399.06;;;11.91;100.00
28448;BME280;15675;52.870;-1.416;2023-02-03T10:33:18;102393.81;;;11.89;100.00
28448;BME280;15675;52.870;-1.416;2023-02-03T10:35:54;102414.44;;;11.82;100.00
28448;BME280;15675;52.870;-1.416;2023-02-03T10:41:17;102417.13;;;11.85;100.00
28448;BME280;15675;52.870;-1.416;2023-02-03T10:43:45;102415.22;;;11.78;100.00
28448;BME280;15675;52.870;-1.416;2023-02-03T10:46:32;102418.06;;;11.88;100.00
28448;BME280;15675;52.870;-1.416;2023-02-03T10:48:58;102401.59;;;11.88;100.00
28448;BME280;15675;52.870;-1.416;2023-02-03T10:51:27;102420.53;;;11.82;100.00
28448;BME280;15675;52.870;-1.416;2023-02-03T10:53:56;102426.72;;;11.87;100.00
28448;BME280;15675;52.870;-1.416;2023-02-03T10:58:51;102439.31;;;12.04;100.00
28448;BME280;15675;52.870;-1.416;2023-02-03T11:01:20;102430.38;;;11.94;100.00
28448;BME280;15675;52.870;-1.416;2023-02-03T11:04:05;102437.44;;;11.98;100.00
28448;BME280;15675;52.870;-1.416;2023-02-03T11:06:32;102431.94;;;11.87;100.00
28448;BME280;15675;52.870;-1.416;2023-02-03T11:08:58;102441.47;;;11.88;100.00
28448;BME280;15675;52.870;-1.416;2023-02-03T11:11:27;102445.28;;;12.00;100.00
28448;BME280;15675;52.870;-1.416;2023-02-03T11:16:28;102439.38;;;12.07;100.00
28448;BME280;15675;52.870;-1.416;2023-02-03T11:19:02;102449.28;;;12.22;100.00
28448;BME280;15675;52.870;-1.416;2023-02-03T11:27:00;102467.38;;;12.52;100.00
28448;BME280;15675;52.870;-1.416;2023-02-03T11:29:32;102461.72;;;12.70;100.00
28448;BME280;15675;52.870;-1.416;2023-02-03T11:32:05;102463.06;;;12.53;100.00
28448;BME280;15675;52.870;-1.416;2023-02-03T11:34:38;102465.78;;;12.59;100.00
28448;BME280;15675;52.870;-1.416;2023-02-03T11:37:27;102469.63;;;12.38;100.00
28448;BME280;15675;52.870;-1.416;2023-02-03T11:40:21;102465.22;;;12.72;100.00
28448;BME280;15675;52.870;-1.416;2023-02-03T11:45:29;102468.41;;;12.59;100.00
28448;BME280;15675;52.870;-1.416;2023-02-03T11:48:10;102459.88;;;12.30;100.00
28448;BME280;15675;52.870;-1.416;2023-02-03T11:50:59;102469.09;;;12.90;100.00
28448;BME280;15675;52.870;-1.416;2023-02-03T11:53:44;102457.63;;;12.82;100.00
28448;BME280;15675;52.870;-1.416;2023-02-03T12:31:19;102483.59;;;12.05;100.00
28448;BME280;15675;52.870;-1.416;2023-02-03T12:33:55;102487.66;;;12.29;100.00
28448;BME280;15675;52.870;-1.416;2023-02-03T12:36:55;102483.13;;;12.22;100.00
28448;BME280;15675;52.870;-1.416;2023-02-03T12:41:54;102478.47;;;12.45;100.00
28448;BME280;15675;52.870;-1.416;2023-02-03T12:44:27;102483.66;;;12.43;100.00
28448;BME280;15675;52.870;-1.416;2023-02-03T12:47:43;102485.50;;;12.48;100.00
28448;BME280;15675;52.870;-1.416;2023-02-03T12:50:03;102477.53;;;12.41;100.00
28448;BME280;15675;52.870;-1.416;2023-02-03T12:52:43;102484.00;;;12.57;100.00
28448;BME280;15675;52.870;-1.416;2023-02-03T12:55:35;102473.72;;;12.65;100.00
28448;BME280;15675;52.870;-1.416;2023-02-03T12:58:27;102488.63;;;12.71;100.00
28448;BME280;15675;52.870;-1.416;2023-02-03T13:06:31;102495.28;;;12.96;100.00
28448;BME280;15675;52.870;-1.416;2023-02-03T13:09:07;102492.50;;;12.88;100.00
28448;BME280;15675;52.870;-1.416;2023-02-03T13:14:27;102498.22;;;12.72;100.00
28448;BME280;15675;52.870;-1.416;2023-02-03T13:19:54;102494.94;;;12.81;100.00
28448;BME280;15675;52.870;-1.416;2023-02-03T13:22:23;102501.09;;;12.84;100.00
28448;BME280;15675;52.870;-1.416;2023-02-03T13:25:03;102487.47;;;12.96;100.00
28448;BME280;15675;52.870;-1.416;2023-02-03T13:39:15;102489.16;;;12.94;100.00
28448;BME280;15675;52.870;-1.416;2023-02-03T13:41:24;102496.28;;;12.63;100.00
28448;BME280;15675;52.870;-1.416;2023-02-03T13:43:53;102493.47;;;12.93;100.00
28448;BME280;15675;52.870;-1.416;2023-02-03T13:46:27;102482.28;;;12.98;100.00
28448;BME280;15675;52.870;-1.416;2023-02-03T13:48:56;102484.44;;;12.77;100.00
28448;BME280;15675;52.870;-1.416;2023-02-03T13:51:29;102489.09;;;12.53;100.00
28448;BME280;15675;52.870;-1.416;2023-02-03T13:54:02;102490.22;;;12.64;100.00
28448;BME280;15675;52.870;-1.416;2023-02-03T13:56:30;102493.38;;;12.51;100.00
28448;BME280;15675;52.870;-1.416;2023-02-03T13:59:29;102491.38;;;12.75;100.00
28448;BME280;15675;52.870;-1.416;2023-02-03T14:07:34;102500.06;;;12.39;100.00
28448;BME280;15675;52.870;-1.416;2023-02-03T14:12:43;102498.69;;;12.55;100.00
28448;BME280;15675;52.870;-1.416;2023-02-03T14:25:53;102503.81;;;12.52;100.00
28448;BME280;15675;52.870;-1.416;2023-02-03T14:28:24;102509.28;;;12.62;100.00
28448;BME280;15675;52.870;-1.416;2023-02-03T14:31:17;102510.66;;;12.47;100.00
28448;BME280;15675;52.870;-1.416;2023-02-03T14:36:42;102498.81;;;12.60;100.00
28448;BME280;15675;52.870;-1.416;2023-02-03T14:53:19;102513.56;;;12.61;100.00
28448;BME280;15675;52.870;-1.416;2023-02-03T14:58:43;102512.53;;;12.53;100.00
28448;BME280;15675;52.870;-1.416;2023-02-03T15:06:43;102515.22;;;12.56;100.00
28448;BME280;15675;52.870;-1.416;2023-02-03T15:11:53;102518.75;;;12.23;100.00
28448;BME280;15675;52.870;-1.416;2023-02-03T15:14:27;102521.59;;;12.34;100.00
28448;BME280;15675;52.870;-1.416;2023-02-03T15:17:09;102521.28;;;12.56;100.00
28448;BME280;15675;52.870;-1.416;2023-02-03T15:19:39;102525.59;;;12.54;100.00
28448;BME280;15675;52.870;-1.416;2023-02-03T15:22:21;102532.13;;;12.38;100.00